sensor_id;sensor_type;location;lat;lon;timestamp;P1;durP1;ratioP1;P2;durP2;ratioP2
75820;SDS011;64454;51.984;9.838;2023-05-24T00:02:22;9.40;;;2.63;;
75820;SDS011;64454;51.984;9.838;2023-05-24T00:04:50;12.20;;;3.13;;
75820;SDS011;64454;51.984;9.838;2023-05-24T00:07:17;8.75;;;2.55;;
75820;SDS011;64454;51.984;9.838;2023-05-24T00:09:46;7.97;;;2.75;;
75820;SDS011;64454;51.984;9.838;2023-05-24T00:12:12;5.20;;;2.38;;
75820;SDS011;64454;51.984;9.838;2023-05-24T00:14:39;5.30;;;2.40;;
75820;SDS011;64454;51.984;9.838;2023-05-24T00:17:06;8.95;;;2.70;;
75820;SDS011;64454;51.984;9.838;2023-05-24T00:19:33;5.55;;;2.60;;
75820;SDS011;64454;51.984;9.838;2023-05-24T00:22:02;6.18;;;2.88;;
75820;SDS011;64454;51.984;9.838;2023-05-24T00:24:29;6.70;;;2.20;;
75820;SDS011;64454;51.984;9.838;2023-05-24T00:26:57;5.25;;;2.47;;
75820;SDS011;64454;51.984;9.838;2023-05-24T00:29:25;6.68;;;2.40;;
75820;SDS011;64454;51.984;9.838;2023-05-24T00:31:51;12.33;;;2.80;;
75820;SDS011;64454;51.984;9.838;2023-05-24T00:34:19;4.03;;;2.20;;
75820;SDS011;64454;51.984;9.838;2023-05-24T00:36:46;7.97;;;3.10;;
75820;SDS011;64454;51.984;9.838;2023-05-24T00:39:13;8.15;;;3.03;;
75820;SDS011;64454;51.984;9.838;2023-05-24T00:41:43;8.27;;;2.50;;
75820;SDS011;64454;51.984;9.838;2023-05-24T00:44:11;8.32;;;2.70;;
75820;SDS011;64454;51.984;9.838;2023-05-24T00:46:38;6.15;;;2.40;;
75820;SDS011;64454;51.984;9.838;2023-05-24T00:49:06;9.80;;;3.10;;
75820;SDS011;64454;51.984;9.838;2023-05-24T00:51:34;4.90;;;2.33;;
75820;SDS011;64454;51.984;9.838;2023-05-24T00:54:02;7.57;;;2.30;;
75820;SDS011;64454;51.984;9.838;2023-05-24T00:56:30;9.20;;;2.65;;
75820;SDS011;64454;51.984;9.838;2023-05-24T00:58:58;4.78;;;1.88;;
75820;SDS011;64454;51.984;9.838;2023-05-24T01:01:26;5.50;;;2.00;;
75820;SDS011;64454;51.984;9.838;2023-05-24T01:03:55;4.43;;;2.47;;
75820;SDS011;64454;51.984;9.838;2023-05-24T01:06:23;6.10;;;2.40;;
75820;SDS011;64454;51.984;9.838;2023-05-24T01:08:55;7.63;;;2.70;;
75820;SDS011;64454;51.984;9.838;2023-05-24T01:11:42;5.20;;;2.50;;
75820;SDS011;64454;51.984;9.838;2023-05-24T01:14:25;7.43;;;2.65;;
75820;SDS011;64454;51.984;9.838;2023-05-24T01:17:05;7.20;;;2.58;;
75820;SDS011;64454;51.984;9.838;2023-05-24T01:25:37;7.10;;;2.17;;
75820;SDS011;64454;51.984;9.838;2023-05-24T01:28:16;6.97;;;2.50;;
75820;SDS011;64454;51.984;9.838;2023-05-24T01:30:44;4.43;;;2.00;;
75820;SDS011;64454;51.984;9.838;2023-05-24T01:33:11;7.13;;;2.90;;
75820;SDS011;64454;51.984;9.838;2023-05-24T01:35:38;6.75;;;2.10;;
75820;SDS011;64454;51.984;9.838;2023-05-24T01:38:06;7.25;;;2.85;;
75820;SDS011;64454;51.984;9.838;2023-05-24T01:40:35;7.20;;;2.38;;
75820;SDS011;64454;51.984;9.838;2023-05-24T01:43:07;5.30;;;2.28;;
75820;SDS011;64454;51.984;9.838;2023-05-24T01:45:44;6.82;;;2.42;;
75820;SDS011;64454;51.984;9.838;2023-05-24T01:48:26;3.45;;;1.95;;
75820;SDS011;64454;51.984;9.838;2023-05-24T01:51:04;11.48;;;2.78;;
75820;SDS011;64454;51.984;9.838;2023-05-24T01:53:38;6.65;;;2.60;;
75820;SDS011;64454;51.984;9.838;2023-05-24T01:56:11;10.50;;;3.00;;
75820;SDS011;64454;51.984;9.838;2023-05-24T01:58:42;6.70;;;2.30;;
75820;SDS011;64454;51.984;9.838;2023-05-24T02:01:11;6.07;;;2.60;;
75820;SDS011;64454;51.984;9.838;2023-05-24T02:03:38;6.00;;;3.03;;
75820;SDS011;64454;51.984;9.838;2023-05-24T02:06:06;7.80;;;2.40;;
75820;SDS011;64454;51.984;9.838;2023-05-24T02:08:34;7.80;;;2.40;;
75820;SDS011;64454;51.984;9.838;2023-05-24T02:11:01;6.30;;;2.30;;
75820;SDS011;64454;51.984;9.838;2023-05-24T02:13:28;6.00;;;2.30;;
75820;SDS011;64454;51.984;9.838;2023-05-24T02:15:56;7.07;;;2.30;;
75820;SDS011;64454;51.984;9.838;2023-05-24T02:18:23;5.88;;;2.30;;
75820;SDS011;64454;51.984;9.838;2023-05-24T02:20:49;4.47;;;1.92;;
75820;SDS011;64454;51.984;9.838;2023-05-24T02:23:16;4.40;;;2.27;;
75820;SDS011;64454;51.984;9.838;2023-05-24T02:25:43;5.07;;;1.98;;
75820;SDS011;64454;51.984;9.838;2023-05-24T02:28:10;8.35;;;2.60;;
75820;SDS011;64454;51.984;9.838;2023-05-24T02:30:36;9.03;;;2.60;;
75820;SDS011;64454;51.984;9.838;2023-05-24T02:33:04;7.68;;;2.35;;
75820;SDS011;64454;51.984;9.838;2023-05-24T02:35:31;7.88;;;2.70;;
75820;SDS011;64454;51.984;9.838;2023-05-24T02:37:58;10.02;;;3.30;;
75820;SDS011;64454;51.984;9.838;2023-05-24T02:40:25;5.35;;;2.85;;
75820;SDS011;64454;51.984;9.838;2023-05-24T02:42:52;7.50;;;2.50;;
75820;SDS011;64454;51.984;9.838;2023-05-24T02:45:19;8.43;;;2.60;;
75820;SDS011;64454;51.984;9.838;2023-05-24T02:47:45;7.00;;;2.50;;
75820;SDS011;64454;51.984;9.838;2023-05-24T02:50:13;7.65;;;2.95;;
75820;SDS011;64454;51.984;9.838;2023-05-24T02:52:40;9.27;;;3.80;;
75820;SDS011;64454;51.984;9.838;2023-05-24T02:55:07;6.80;;;2.63;;
75820;SDS011;64454;51.984;9.838;2023-05-24T02:57:35;11.05;;;2.90;;
75820;SDS011;64454;51.984;9.838;2023-05-24T03:00:02;7.00;;;2.60;;
75820;SDS011;64454;51.984;9.838;2023-05-24T03:02:32;7.93;;;3.00;;
75820;SDS011;64454;51.984;9.838;2023-05-24T03:05:02;6.60;;;2.43;;
75820;SDS011;64454;51.984;9.838;2023-05-24T03:07:31;6.63;;;3.25;;
75820;SDS011;64454;51.984;9.838;2023-05-24T03:09:58;9.13;;;2.58;;
75820;SDS011;64454;51.984;9.838;2023-05-24T03:12:25;7.32;;;2.60;;
75820;SDS011;64454;51.984;9.838;2023-05-24T03:14:52;5.65;;;2.50;;
75820;SDS011;64454;51.984;9.838;2023-05-24T03:17:18;8.38;;;3.00;;
75820;SDS011;64454;51.984;9.838;2023-05-24T03:19:45;5.95;;;3.08;;
75820;SDS011;64454;51.984;9.838;2023-05-24T03:22:12;9.90;;;2.90;;
75820;SDS011;64454;51.984;9.838;2023-05-24T03:24:40;9.93;;;2.97;;
75820;SDS011;64454;51.984;9.838;2023-05-24T03:27:07;9.50;;;3.30;;
75820;SDS011;64454;51.984;9.838;2023-05-24T03:29:34;6.72;;;2.60;;
75820;SDS011;64454;51.984;9.838;2023-05-24T03:32:01;7.67;;;2.80;;
75820;SDS011;64454;51.984;9.838;2023-05-24T03:34:27;6.00;;;2.73;;
75820;SDS011;64454;51.984;9.838;2023-05-24T03:36:55;10.82;;;3.10;;
75820;SDS011;64454;51.984;9.838;2023-05-24T03:39:22;9.35;;;2.80;;
75820;SDS011;64454;51.984;9.838;2023-05-24T03:41:50;10.75;;;3.13;;
75820;SDS011;64454;51.984;9.838;2023-05-24T03:44:17;8.32;;;2.92;;
75820;SDS011;64454;51.984;9.838;2023-05-24T03:46:46;9.68;;;3.75;;
75820;SDS011;64454;51.984;9.838;2023-05-24T03:49:13;8.02;;;3.78;;
75820;SDS011;64454;51.984;9.838;2023-05-24T03:51:41;6.57;;;2.80;;
75820;SDS011;64454;51.984;9.838;2023-05-24T03:54:08;9.80;;;3.90;;
75820;SDS011;64454;51.984;9.838;2023-05-24T03:56:35;10.00;;;3.45;;
75820;SDS011;64454;51.984;9.838;2023-05-24T03:59:04;10.88;;;3.40;;
75820;SDS011;64454;51.984;9.838;2023-05-24T04:01:31;5.10;;;3.40;;
75820;SDS011;64454;51.984;9.838;2023-05-24T04:04:00;9.38;;;3.30;;
75820;SDS011;64454;51.984;9.838;2023-05-24T04:06:27;7.25;;;3.20;;
75820;SDS011;64454;51.984;9.838;2023-05-24T04:08:55;11.98;;;3.40;;
75820;SDS011;64454;51.984;9.838;2023-05-24T04:11:22;10.30;;;3.30;;
75820;SDS011;64454;51.984;9.838;2023-05-24T04:13:52;7.90;;;3.27;;
75820;SDS011;64454;51.984;9.838;2023-05-24T04:16:22;9.77;;;3.60;;
75820;SDS011;64454;51.984;9.838;2023-05-24T04:18:50;9.65;;;3.97;;
75820;SDS011;64454;51.984;9.838;2023-05-24T04:21:17;7.90;;;3.97;;
75820;SDS011;64454;51.984;9.838;2023-05-24T04:23:44;9.52;;;3.58;;
75820;SDS011;64454;51.984;9.838;2023-05-24T04:26:11;15.30;;;4.28;;
75820;SDS011;64454;51.984;9.838;2023-05-24T04:28:39;14.35;;;4.38;;
75820;SDS011;64454;51.984;9.838;2023-05-24T04:31:06;10.07;;;3.42;;
75820;SDS011;64454;51.984;9.838;2023-05-24T04:33:35;11.25;;;3.88;;
75820;SDS011;64454;51.984;9.838;2023-05-24T04:36:03;12.48;;;3.88;;
75820;SDS011;64454;51.984;9.838;2023-05-24T04:38:32;10.50;;;4.10;;
75820;SDS011;64454;51.984;9.838;2023-05-24T04:41:00;15.85;;;4.80;;
75820;SDS011;64454;51.984;9.838;2023-05-24T04:43:27;16.00;;;5.43;;
75820;SDS011;64454;51.984;9.838;2023-05-24T04:45:54;11.10;;;4.30;;
75820;SDS011;64454;51.984;9.838;2023-05-24T04:48:21;13.75;;;4.40;;
75820;SDS011;64454;51.984;9.838;2023-05-24T04:50:50;11.50;;;4.90;;
75820;SDS011;64454;51.984;9.838;2023-05-24T04:53:18;18.33;;;4.57;;
75820;SDS011;64454;51.984;9.838;2023-05-24T04:55:45;9.77;;;4.00;;
75820;SDS011;64454;51.984;9.838;2023-05-24T04:58:13;14.48;;;4.57;;
75820;SDS011;64454;51.984;9.838;2023-05-24T05:00:40;11.20;;;4.15;;
75820;SDS011;64454;51.984;9.838;2023-05-24T05:03:08;14.18;;;4.35;;
75820;SDS011;64454;51.984;9.838;2023-05-24T05:05:36;16.42;;;5.07;;
75820;SDS011;64454;51.984;9.838;2023-05-24T05:08:05;9.40;;;3.85;;
75820;SDS011;64454;51.984;9.838;2023-05-24T05:10:31;16.55;;;4.68;;
75820;SDS011;64454;51.984;9.838;2023-05-24T05:12:58;11.05;;;4.60;;
75820;SDS011;64454;51.984;9.838;2023-05-24T05:15:25;13.18;;;4.97;;
75820;SDS011;64454;51.984;9.838;2023-05-24T05:17:52;17.35;;;5.18;;
75820;SDS011;64454;51.984;9.838;2023-05-24T05:20:19;11.32;;;4.55;;
75820;SDS011;64454;51.984;9.838;2023-05-24T05:22:45;15.05;;;5.15;;
75820;SDS011;64454;51.984;9.838;2023-05-24T05:25:14;18.30;;;4.80;;
75820;SDS011;64454;51.984;9.838;2023-05-24T05:27:41;10.60;;;4.25;;
75820;SDS011;64454;51.984;9.838;2023-05-24T05:30:09;14.88;;;4.90;;
75820;SDS011;64454;51.984;9.838;2023-05-24T05:32:36;14.50;;;4.77;;
75820;SDS011;64454;51.984;9.838;2023-05-24T05:35:04;14.93;;;5.33;;
75820;SDS011;64454;51.984;9.838;2023-05-24T05:37:32;19.00;;;5.75;;
75820;SDS011;64454;51.984;9.838;2023-05-24T05:39:58;16.33;;;5.60;;
75820;SDS011;64454;51.984;9.838;2023-05-24T05:42:26;16.95;;;5.10;;
75820;SDS011;64454;51.984;9.838;2023-05-24T05:44:53;17.48;;;5.65;;
75820;SDS011;64454;51.984;9.838;2023-05-24T05:47:20;15.02;;;5.78;;
75820;SDS011;64454;51.984;9.838;2023-05-24T05:49:47;15.43;;;4.78;;
75820;SDS011;64454;51.984;9.838;2023-05-24T05:52:13;15.63;;;5.55;;
75820;SDS011;64454;51.984;9.838;2023-05-24T05:54:40;17.80;;;4.90;;
75820;SDS011;64454;51.984;9.838;2023-05-24T05:57:07;16.83;;;5.33;;
75820;SDS011;64454;51.984;9.838;2023-05-24T05:59:36;16.75;;;5.43;;
75820;SDS011;64454;51.984;9.838;2023-05-24T06:02:03;13.13;;;5.22;;
75820;SDS011;64454;51.984;9.838;2023-05-24T06:04:31;16.05;;;4.88;;
75820;SDS011;64454;51.984;9.838;2023-05-24T06:06:58;16.40;;;5.07;;
75820;SDS011;64454;51.984;9.838;2023-05-24T06:09:25;13.70;;;4.30;;
75820;SDS011;64454;51.984;9.838;2023-05-24T06:11:52;14.73;;;5.43;;
75820;SDS011;64454;51.984;9.838;2023-05-24T06:14:19;18.67;;;5.03;;
75820;SDS011;64454;51.984;9.838;2023-05-24T06:16:50;9.35;;;4.85;;
75820;SDS011;64454;51.984;9.838;2023-05-24T06:19:19;13.40;;;4.70;;
75820;SDS011;64454;51.984;9.838;2023-05-24T06:21:46;11.10;;;5.30;;
75820;SDS011;64454;51.984;9.838;2023-05-24T06:24:15;14.38;;;4.90;;
75820;SDS011;64454;51.984;9.838;2023-05-24T06:26:45;16.67;;;4.97;;
75820;SDS011;64454;51.984;9.838;2023-05-24T06:29:12;18.15;;;5.47;;
75820;SDS011;64454;51.984;9.838;2023-05-24T06:31:40;12.55;;;5.45;;
75820;SDS011;64454;51.984;9.838;2023-05-24T06:34:08;14.65;;;5.82;;
75820;SDS011;64454;51.984;9.838;2023-05-24T06:36:35;18.00;;;5.18;;
75820;SDS011;64454;51.984;9.838;2023-05-24T06:39:05;16.65;;;4.88;;
75820;SDS011;64454;51.984;9.838;2023-05-24T06:41:32;16.63;;;6.15;;
75820;SDS011;64454;51.984;9.838;2023-05-24T06:43:59;20.38;;;5.20;;
75820;SDS011;64454;51.984;9.838;2023-05-24T06:46:26;15.33;;;5.47;;
75820;SDS011;64454;51.984;9.838;2023-05-24T06:48:53;15.10;;;4.57;;
75820;SDS011;64454;51.984;9.838;2023-05-24T06:51:21;15.30;;;5.57;;
75820;SDS011;64454;51.984;9.838;2023-05-24T06:53:48;18.53;;;5.50;;
75820;SDS011;64454;51.984;9.838;2023-05-24T06:56:14;13.87;;;5.00;;
75820;SDS011;64454;51.984;9.838;2023-05-24T06:58:41;15.70;;;5.50;;
75820;SDS011;64454;51.984;9.838;2023-05-24T07:01:09;16.48;;;5.03;;
75820;SDS011;64454;51.984;9.838;2023-05-24T07:03:35;16.50;;;4.70;;
75820;SDS011;64454;51.984;9.838;2023-05-24T07:06:02;22.17;;;7.45;;
75820;SDS011;64454;51.984;9.838;2023-05-24T07:08:30;15.40;;;5.15;;
75820;SDS011;64454;51.984;9.838;2023-05-24T07:10:57;18.10;;;4.70;;
75820;SDS011;64454;51.984;9.838;2023-05-24T07:13:24;13.73;;;4.80;;
75820;SDS011;64454;51.984;9.838;2023-05-24T07:15:51;12.90;;;4.90;;
75820;SDS011;64454;51.984;9.838;2023-05-24T07:18:18;14.82;;;5.68;;
75820;SDS011;64454;51.984;9.838;2023-05-24T07:20:45;16.23;;;4.70;;
75820;SDS011;64454;51.984;9.838;2023-05-24T07:23:11;13.20;;;4.30;;
75820;SDS011;64454;51.984;9.838;2023-05-24T07:25:40;12.85;;;4.72;;
75820;SDS011;64454;51.984;9.838;2023-05-24T07:28:07;13.43;;;4.50;;
75820;SDS011;64454;51.984;9.838;2023-05-24T07:30:33;12.97;;;4.30;;
75820;SDS011;64454;51.984;9.838;2023-05-24T07:33:02;14.75;;;4.68;;
75820;SDS011;64454;51.984;9.838;2023-05-24T07:35:29;13.75;;;4.45;;
75820;SDS011;64454;51.984;9.838;2023-05-24T07:37:56;13.02;;;4.72;;
75820;SDS011;64454;51.984;9.838;2023-05-24T07:40:23;14.13;;;4.63;;
75820;SDS011;64454;51.984;9.838;2023-05-24T07:42:51;16.35;;;4.57;;
75820;SDS011;64454;51.984;9.838;2023-05-24T07:45:18;11.85;;;3.75;;
75820;SDS011;64454;51.984;9.838;2023-05-24T07:47:45;18.70;;;5.30;;
75820;SDS011;64454;51.984;9.838;2023-05-24T07:50:12;13.43;;;4.70;;
75820;SDS011;64454;51.984;9.838;2023-05-24T07:52:39;11.68;;;4.47;;
75820;SDS011;64454;51.984;9.838;2023-05-24T07:55:06;17.00;;;4.70;;
75820;SDS011;64454;51.984;9.838;2023-05-24T07:57:33;9.47;;;3.50;;
75820;SDS011;64454;51.984;9.838;2023-05-24T08:00:01;10.15;;;3.60;;
75820;SDS011;64454;51.984;9.838;2023-05-24T08:02:36;12.70;;;4.15;;
75820;SDS011;64454;51.984;9.838;2023-05-24T08:05:03;13.52;;;4.28;;
75820;SDS011;64454;51.984;9.838;2023-05-24T08:07:34;10.25;;;4.30;;
75820;SDS011;64454;51.984;9.838;2023-05-24T08:10:01;20.33;;;4.43;;
75820;SDS011;64454;51.984;9.838;2023-05-24T08:12:28;12.20;;;4.65;;
75820;SDS011;64454;51.984;9.838;2023-05-24T08:14:55;10.80;;;4.40;;
75820;SDS011;64454;51.984;9.838;2023-05-24T08:17:23;15.95;;;4.95;;
75820;SDS011;64454;51.984;9.838;2023-05-24T08:19:51;14.43;;;4.40;;
75820;SDS011;64454;51.984;9.838;2023-05-24T08:22:18;11.23;;;4.57;;
75820;SDS011;64454;51.984;9.838;2023-05-24T08:24:45;16.08;;;5.38;;
75820;SDS011;64454;51.984;9.838;2023-05-24T08:27:12;15.50;;;4.47;;
75820;SDS011;64454;51.984;9.838;2023-05-24T08:29:39;11.32;;;5.07;;
75820;SDS011;64454;51.984;9.838;2023-05-24T08:32:06;14.90;;;4.80;;
75820;SDS011;64454;51.984;9.838;2023-05-24T08:34:35;15.55;;;4.70;;
75820;SDS011;64454;51.984;9.838;2023-05-24T08:37:02;16.20;;;5.47;;
75820;SDS011;64454;51.984;9.838;2023-05-24T08:39:29;18.10;;;4.60;;
75820;SDS011;64454;51.984;9.838;2023-05-24T08:41:57;15.30;;;4.80;;
75820;SDS011;64454;51.984;9.838;2023-05-24T08:44:24;11.15;;;4.57;;
75820;SDS011;64454;51.984;9.838;2023-05-24T08:46:54;14.70;;;4.13;;
75820;SDS011;64454;51.984;9.838;2023-05-24T08:49:23;12.02;;;4.30;;
75820;SDS011;64454;51.984;9.838;2023-05-24T08:51:52;13.05;;;4.32;;
75820;SDS011;64454;51.984;9.838;2023-05-24T08:54:19;12.48;;;4.70;;
75820;SDS011;64454;51.984;9.838;2023-05-24T08:56:47;11.02;;;4.80;;
75820;SDS011;64454;51.984;9.838;2023-05-24T08:59:16;10.67;;;4.30;;
75820;SDS011;64454;51.984;9.838;2023-05-24T09:01:45;17.17;;;5.67;;
75820;SDS011;64454;51.984;9.838;2023-05-24T09:04:19;13.55;;;4.45;;
75820;SDS011;64454;51.984;9.838;2023-05-24T09:06:47;16.38;;;5.18;;
75820;SDS011;64454;51.984;9.838;2023-05-24T09:09:18;10.25;;;4.47;;
75820;SDS011;64454;51.984;9.838;2023-05-24T09:11:48;17.50;;;5.38;;
75820;SDS011;64454;51.984;9.838;2023-05-24T09:14:21;15.68;;;4.30;;
75820;SDS011;64454;51.984;9.838;2023-05-24T09:16:48;13.93;;;4.07;;
75820;SDS011;64454;51.984;9.838;2023-05-24T09:19:16;11.88;;;4.50;;
75820;SDS011;64454;51.984;9.838;2023-05-24T09:21:47;14.23;;;4.22;;
75820;SDS011;64454;51.984;9.838;2023-05-24T09:24:19;11.98;;;3.75;;
75820;SDS011;64454;51.984;9.838;2023-05-24T09:26:48;15.87;;;4.50;;
75820;SDS011;64454;51.984;9.838;2023-05-24T09:29:17;12.80;;;3.50;;
75820;SDS011;64454;51.984;9.838;2023-05-24T09:31:48;7.20;;;3.58;;
75820;SDS011;64454;51.984;9.838;2023-05-24T09:34:16;10.10;;;3.80;;
75820;SDS011;64454;51.984;9.838;2023-05-24T09:36:45;10.82;;;3.20;;
75820;SDS011;64454;51.984;9.838;2023-05-24T09:39:13;12.57;;;4.20;;
75820;SDS011;64454;51.984;9.838;2023-05-24T09:41:51;13.20;;;3.40;;
75820;SDS011;64454;51.984;9.838;2023-05-24T09:44:23;10.65;;;3.97;;
75820;SDS011;64454;51.984;9.838;2023-05-24T09:46:50;11.60;;;4.10;;
75820;SDS011;64454;51.984;9.838;2023-05-24T09:49:19;12.80;;;3.90;;
75820;SDS011;64454;51.984;9.838;2023-05-24T09:51:46;12.45;;;3.92;;
75820;SDS011;64454;51.984;9.838;2023-05-24T09:54:13;11.70;;;4.13;;
75820;SDS011;64454;51.984;9.838;2023-05-24T09:56:46;9.88;;;4.00;;
75820;SDS011;64454;51.984;9.838;2023-05-24T09:59:13;10.93;;;4.20;;
75820;SDS011;64454;51.984;9.838;2023-05-24T10:01:42;14.35;;;4.53;;
75820;SDS011;64454;51.984;9.838;2023-05-24T10:04:10;14.30;;;4.10;;
75820;SDS011;64454;51.984;9.838;2023-05-24T10:06:38;9.05;;;4.10;;
75820;SDS011;64454;51.984;9.838;2023-05-24T10:09:07;8.05;;;3.80;;
75820;SDS011;64454;51.984;9.838;2023-05-24T10:11:35;9.57;;;3.50;;
75820;SDS011;64454;51.984;9.838;2023-05-24T10:14:04;11.88;;;3.80;;
75820;SDS011;64454;51.984;9.838;2023-05-24T10:16:32;11.05;;;3.80;;
75820;SDS011;64454;51.984;9.838;2023-05-24T10:18:58;10.27;;;3.50;;
75820;SDS011;64454;51.984;9.838;2023-05-24T10:21:25;12.43;;;3.97;;
75820;SDS011;64454;51.984;9.838;2023-05-24T10:23:58;10.20;;;3.40;;
75820;SDS011;64454;51.984;9.838;2023-05-24T10:26:30;9.40;;;3.40;;
75820;SDS011;64454;51.984;9.838;2023-05-24T10:28:59;7.55;;;2.90;;
75820;SDS011;64454;51.984;9.838;2023-05-24T10:31:41;8.60;;;2.65;;
75820;SDS011;64454;51.984;9.838;2023-05-24T10:34:09;8.07;;;2.23;;
75820;SDS011;64454;51.984;9.838;2023-05-24T10:36:37;7.90;;;2.90;;
75820;SDS011;64454;51.984;9.838;2023-05-24T10:39:06;5.53;;;2.60;;
75820;SDS011;64454;51.984;9.838;2023-05-24T10:41:39;6.10;;;2.40;;
75820;SDS011;64454;51.984;9.838;2023-05-24T10:44:10;8.68;;;2.90;;
75820;SDS011;64454;51.984;9.838;2023-05-24T10:49:34;5.70;;;2.55;;
75820;SDS011;64454;51.984;9.838;2023-05-24T10:52:01;8.23;;;3.28;;
75820;SDS011;64454;51.984;9.838;2023-05-24T10:54:33;8.13;;;4.00;;
75820;SDS011;64454;51.984;9.838;2023-05-24T10:57:02;5.70;;;2.65;;
75820;SDS011;64454;51.984;9.838;2023-05-24T10:59:34;7.28;;;2.70;;
75820;SDS011;64454;51.984;9.838;2023-05-24T11:02:04;6.43;;;2.38;;
75820;SDS011;64454;51.984;9.838;2023-05-24T11:04:38;4.45;;;2.00;;
75820;SDS011;64454;51.984;9.838;2023-05-24T11:07:07;5.97;;;2.53;;
75820;SDS011;64454;51.984;9.838;2023-05-24T11:09:35;9.30;;;3.45;;
75820;SDS011;64454;51.984;9.838;2023-05-24T11:12:10;7.28;;;3.05;;
75820;SDS011;64454;51.984;9.838;2023-05-24T11:14:46;5.50;;;2.40;;
75820;SDS011;64454;51.984;9.838;2023-05-24T11:17:15;4.80;;;2.50;;
75820;SDS011;64454;51.984;9.838;2023-05-24T11:19:45;6.90;;;2.80;;
75820;SDS011;64454;51.984;9.838;2023-05-24T11:22:14;6.80;;;3.20;;
75820;SDS011;64454;51.984;9.838;2023-05-24T11:24:41;7.28;;;3.38;;
75820;SDS011;64454;51.984;9.838;2023-05-24T11:27:10;6.57;;;3.10;;
75820;SDS011;64454;51.984;9.838;2023-05-24T11:29:39;7.50;;;3.40;;
75820;SDS011;64454;51.984;9.838;2023-05-24T11:32:08;7.63;;;3.20;;
75820;SDS011;64454;51.984;9.838;2023-05-24T11:34:41;8.68;;;3.17;;
75820;SDS011;64454;51.984;9.838;2023-05-24T11:37:09;8.83;;;5.27;;
75820;SDS011;64454;51.984;9.838;2023-05-24T11:39:37;9.65;;;4.13;;
75820;SDS011;64454;51.984;9.838;2023-05-24T11:42:05;10.85;;;5.65;;
75820;SDS011;64454;51.984;9.838;2023-05-24T11:44:33;7.80;;;3.63;;
75820;SDS011;64454;51.984;9.838;2023-05-24T11:47:04;7.70;;;3.10;;
75820;SDS011;64454;51.984;9.838;2023-05-24T11:49:34;7.20;;;3.33;;
75820;SDS011;64454;51.984;9.838;2023-05-24T11:52:01;7.33;;;3.70;;
75820;SDS011;64454;51.984;9.838;2023-05-24T11:54:28;5.22;;;3.00;;
75820;SDS011;64454;51.984;9.838;2023-05-24T11:56:56;9.25;;;5.28;;
75820;SDS011;64454;51.984;9.838;2023-05-24T11:59:23;6.70;;;3.65;;
75820;SDS011;64454;51.984;9.838;2023-05-24T12:01:58;6.85;;;4.35;;
75820;SDS011;64454;51.984;9.838;2023-05-24T12:04:27;7.43;;;3.50;;
75820;SDS011;64454;51.984;9.838;2023-05-24T12:06:56;5.63;;;3.35;;
75820;SDS011;64454;51.984;9.838;2023-05-24T12:09:24;8.75;;;4.30;;
75820;SDS011;64454;51.984;9.838;2023-05-24T12:11:52;7.15;;;3.90;;
75820;SDS011;64454;51.984;9.838;2023-05-24T12:14:22;7.95;;;4.50;;
75820;SDS011;64454;51.984;9.838;2023-05-24T12:16:52;9.40;;;4.72;;
75820;SDS011;64454;51.984;9.838;2023-05-24T12:19:21;12.10;;;4.50;;
75820;SDS011;64454;51.984;9.838;2023-05-24T12:21:53;5.88;;;4.45;;
75820;SDS011;64454;51.984;9.838;2023-05-24T12:24:23;9.05;;;4.53;;
75820;SDS011;64454;51.984;9.838;2023-05-24T12:26:56;13.48;;;5.65;;
75820;SDS011;64454;51.984;9.838;2023-05-24T12:29:25;11.50;;;4.97;;
75820;SDS011;64454;51.984;9.838;2023-05-24T12:31:52;9.15;;;4.95;;
75820;SDS011;64454;51.984;9.838;2023-05-24T12:34:20;9.05;;;5.18;;
75820;SDS011;64454;51.984;9.838;2023-05-24T12:36:47;8.63;;;4.38;;
75820;SDS011;64454;51.984;9.838;2023-05-24T12:39:17;10.57;;;5.28;;
75820;SDS011;64454;51.984;9.838;2023-05-24T12:41:51;9.70;;;4.87;;
75820;SDS011;64454;51.984;9.838;2023-05-24T12:44:22;8.68;;;4.60;;
75820;SDS011;64454;51.984;9.838;2023-05-24T12:46:50;6.60;;;3.80;;
75820;SDS011;64454;51.984;9.838;2023-05-24T12:49:18;8.60;;;4.10;;
75820;SDS011;64454;51.984;9.838;2023-05-24T12:51:46;11.13;;;4.70;;
75820;SDS011;64454;51.984;9.838;2023-05-24T12:54:14;7.90;;;4.18;;
75820;SDS011;64454;51.984;9.838;2023-05-24T12:56:45;8.93;;;4.10;;
75820;SDS011;64454;51.984;9.838;2023-05-24T12:59:14;8.75;;;4.35;;
75820;SDS011;64454;51.984;9.838;2023-05-24T13:01:43;7.93;;;5.03;;
75820;SDS011;64454;51.984;9.838;2023-05-24T13:04:15;10.57;;;4.35;;
75820;SDS011;64454;51.984;9.838;2023-05-24T13:06:45;6.50;;;3.97;;
75820;SDS011;64454;51.984;9.838;2023-05-24T13:09:13;8.68;;;4.30;;
75820;SDS011;64454;51.984;9.838;2023-05-24T13:11:45;6.65;;;4.40;;
75820;SDS011;64454;51.984;9.838;2023-05-24T13:14:13;7.20;;;4.28;;
75820;SDS011;64454;51.984;9.838;2023-05-24T13:16:43;6.15;;;4.18;;
75820;SDS011;64454;51.984;9.838;2023-05-24T13:19:10;6.53;;;4.25;;
75820;SDS011;64454;51.984;9.838;2023-05-24T13:21:37;7.28;;;4.85;;
75820;SDS011;64454;51.984;9.838;2023-05-24T13:24:05;10.10;;;4.80;;
75820;SDS011;64454;51.984;9.838;2023-05-24T13:26:32;7.78;;;4.85;;
75820;SDS011;64454;51.984;9.838;2023-05-24T13:29:01;11.93;;;4.50;;
75820;SDS011;64454;51.984;9.838;2023-05-24T13:31:31;6.32;;;4.32;;
75820;SDS011;64454;51.984;9.838;2023-05-24T13:33:59;7.82;;;4.50;;
75820;SDS011;64454;51.984;9.838;2023-05-24T13:36:26;8.38;;;4.70;;
75820;SDS011;64454;51.984;9.838;2023-05-24T13:38:53;7.90;;;4.13;;
75820;SDS011;64454;51.984;9.838;2023-05-24T13:41:19;9.00;;;4.20;;
75820;SDS011;64454;51.984;9.838;2023-05-24T13:43:46;9.40;;;4.22;;
75820;SDS011;64454;51.984;9.838;2023-05-24T13:46:14;9.63;;;4.18;;
75820;SDS011;64454;51.984;9.838;2023-05-24T13:48:42;10.07;;;4.50;;
75820;SDS011;64454;51.984;9.838;2023-05-24T13:51:09;5.35;;;3.72;;
75820;SDS011;64454;51.984;9.838;2023-05-24T13:53:36;7.32;;;3.80;;
75820;SDS011;64454;51.984;9.838;2023-05-24T13:56:03;7.10;;;4.20;;
75820;SDS011;64454;51.984;9.838;2023-05-24T13:58:30;5.25;;;3.50;;
75820;SDS011;64454;51.984;9.838;2023-05-24T14:00:56;6.95;;;3.67;;
75820;SDS011;64454;51.984;9.838;2023-05-24T14:03:23;6.00;;;4.18;;
75820;SDS011;64454;51.984;9.838;2023-05-24T14:05:51;6.90;;;3.80;;
75820;SDS011;64454;51.984;9.838;2023-05-24T14:08:18;8.50;;;4.70;;
75820;SDS011;64454;51.984;9.838;2023-05-24T14:10:45;13.32;;;6.40;;
75820;SDS011;64454;51.984;9.838;2023-05-24T14:13:14;10.05;;;4.97;;
75820;SDS011;64454;51.984;9.838;2023-05-24T14:15:41;9.35;;;5.80;;
75820;SDS011;64454;51.984;9.838;2023-05-24T14:18:08;10.00;;;4.70;;
75820;SDS011;64454;51.984;9.838;2023-05-24T14:20:36;9.50;;;4.60;;
75820;SDS011;64454;51.984;9.838;2023-05-24T14:23:06;8.00;;;4.50;;
75820;SDS011;64454;51.984;9.838;2023-05-24T14:25:34;9.13;;;4.90;;
75820;SDS011;64454;51.984;9.838;2023-05-24T14:28:01;5.97;;;4.00;;
75820;SDS011;64454;51.984;9.838;2023-05-24T14:30:29;10.07;;;4.20;;
75820;SDS011;64454;51.984;9.838;2023-05-24T14:32:57;6.03;;;4.20;;
75820;SDS011;64454;51.984;9.838;2023-05-24T14:35:24;8.00;;;4.68;;
75820;SDS011;64454;51.984;9.838;2023-05-24T14:37:51;11.10;;;4.20;;
75820;SDS011;64454;51.984;9.838;2023-05-24T14:40:19;7.25;;;4.40;;
75820;SDS011;64454;51.984;9.838;2023-05-24T14:42:46;9.10;;;4.45;;
75820;SDS011;64454;51.984;9.838;2023-05-24T14:45:13;7.57;;;4.30;;
75820;SDS011;64454;51.984;9.838;2023-05-24T14:47:40;8.05;;;4.07;;
75820;SDS011;64454;51.984;9.838;2023-05-24T14:50:07;7.38;;;4.50;;
75820;SDS011;64454;51.984;9.838;2023-05-24T14:52:34;7.65;;;4.30;;
75820;SDS011;64454;51.984;9.838;2023-05-24T14:55:01;8.48;;;4.30;;
75820;SDS011;64454;51.984;9.838;2023-05-24T14:57:30;6.90;;;4.10;;